createdAt,value
2023-01-12T00:30:52.246Z,30.50
2023-01-12T00:33:19.473Z,26.50
2023-01-12T00:35:46.342Z,24.90
2023-01-12T00:38:12.942Z,31.00
2023-01-12T00:40:39.490Z,30.10
2023-01-12T00:43:25.041Z,26.70
2023-01-12T00:45:51.663Z,28.90
2023-01-12T00:48:18.240Z,32.30
2023-01-12T00:50:47.622Z,35.30
2023-01-12T00:53:14.138Z,34.40
2023-01-12T00:55:43.011Z,35.90
2023-01-12T00:58:09.963Z,35.20
2023-01-12T01:00:39.493Z,34.20
2023-01-12T01:03:07.205Z,34.40
2023-01-12T01:05:34.023Z,35.90
2023-01-12T01:08:00.460Z,37.00
2023-01-12T01:10:27.419Z,48.30
2023-01-12T01:12:53.965Z,42.20
2023-01-12T01:15:20.436Z,39.90
2023-01-12T01:17:49.465Z,38.90
2023-01-12T01:20:16.163Z,39.60
2023-01-12T01:22:43.026Z,35.00
2023-01-12T01:25:09.658Z,32.20
2023-01-12T01:27:36.213Z,31.40
2023-01-12T01:30:02.869Z,29.60
2023-01-12T01:32:29.633Z,29.80
2023-01-12T01:34:56.034Z,29.50
2023-01-12T01:37:22.483Z,29.80
2023-01-12T01:39:49.075Z,25.80
2023-01-12T01:42:28.025Z,25.70
2023-01-12T01:44:56.779Z,23.30
2023-01-12T01:47:29.744Z,25.60
2023-01-12T01:49:56.261Z,29.20
2023-01-12T01:52:36.199Z,31.20
2023-01-12T01:55:08.277Z,32.80
2023-01-12T01:57:43.090Z,29.80
2023-01-12T02:00:10.593Z,31.90
2023-01-12T02:02:37.304Z,33.40
2023-01-12T02:05:04.086Z,31.30
2023-01-12T02:07:31.597Z,31.40
2023-01-12T02:09:58.006Z,40.70
2023-01-12T02:12:42.921Z,39.60
2023-01-12T02:15:28.407Z,41.10
2023-01-12T02:18:27.394Z,39.90
2023-01-12T02:21:09.841Z,36.90
2023-01-12T02:24:13.788Z,30.40
2023-01-12T02:27:02.024Z,27.00
2023-01-12T02:29:50.512Z,23.80
2023-01-12T02:32:29.266Z,22.80
2023-01-12T02:35:04.527Z,28.80
2023-01-12T02:37:47.757Z,28.70
2023-01-12T02:40:43.686Z,36.30
2023-01-12T02:43:16.061Z,31.30
2023-01-12T02:45:54.099Z,31.50
2023-01-12T02:48:33.993Z,24.90
2023-01-12T02:51:11.299Z,21.20
2023-01-12T02:53:59.220Z,18.50
2023-01-12T02:56:37.342Z,16.10
2023-01-12T02:59:08.787Z,17.80
2023-01-12T03:01:35.394Z,16.20
2023-01-12T03:04:03.283Z,16.70
2023-01-12T03:06:42.055Z,19.00
2023-01-12T03:09:08.511Z,16.90
2023-01-12T03:11:35.450Z,16.20
2023-01-12T03:14:02.595Z,17.80
2023-01-12T03:16:31.237Z,16.20
2023-01-12T03:19:03.296Z,15.10
2023-01-12T03:21:32.287Z,16.70
2023-01-12T03:24:04.078Z,15.20
2023-01-12T03:26:32.451Z,14.10
2023-01-12T03:29:14.727Z,13.80
2023-01-12T03:31:41.384Z,13.60
2023-01-12T03:34:08.561Z,13.20
2023-01-12T03:36:45.821Z,14.40
2023-01-12T03:39:36.995Z,14.40
2023-01-12T03:44:40.695Z,13.50
2023-01-12T03:47:17.477Z,19.60
2023-01-12T03:49:46.944Z,19.50
2023-01-12T03:52:13.456Z,18.30
2023-01-12T03:54:40.049Z,18.30
2023-01-12T03:57:06.952Z,18.70
2023-01-12T03:59:33.569Z,17.30
2023-01-12T04:02:00.137Z,15.70
2023-01-12T04:04:26.807Z,16.70
2023-01-12T04:06:53.296Z,15.80
2023-01-12T10:29:46.020Z,33.20
2023-01-12T10:32:13.546Z,29.30
2023-01-12T10:34:51.245Z,24.80
2023-01-12T10:37:18.077Z,25.30
2023-01-12T10:39:45.073Z,26.40
2023-01-12T10:42:36.589Z,26.30
2023-01-12T10:45:23.166Z,29.10
2023-01-12T10:47:54.213Z,22.90
2023-01-12T10:50:25.162Z,23.60
2023-01-12T10:53:01.332Z,25.30
2023-01-12T10:55:35.084Z,23.30
2023-01-12T10:58:02.216Z,31.20
2023-01-12T11:00:29.803Z,23.20
2023-01-12T11:02:56.599Z,19.70
2023-01-12T11:05:38.513Z,21.10
2023-01-12T11:08:26.382Z,17.20
2023-01-12T11:10:53.161Z,23.80
2023-01-12T11:13:26.875Z,26.90
2023-01-12T11:16:20.120Z,23.30
2023-01-12T11:18:54.778Z,19.90
2023-01-12T11:21:23.333Z,22.10
2023-01-12T11:24:15.029Z,19.30
2023-01-12T11:27:00.382Z,22.40
2023-01-12T11:29:38.544Z,18.90
2023-01-12T11:32:32.325Z,18.30
2023-01-12T11:35:37.136Z,23.40
2023-01-12T11:38:09.693Z,24.60
2023-01-12T11:40:37.731Z,21.80
2023-01-12T11:43:55.935Z,22.00
2023-01-12T11:46:47.747Z,21.10
2023-01-12T11:49:27.153Z,17.00
2023-01-12T11:51:56.504Z,20.50
2023-01-12T11:54:23.243Z,20.50
2023-01-12T11:56:49.901Z,21.70
2023-01-12T11:59:24.843Z,16.10
2023-01-12T12:02:10.224Z,20.60
2023-01-12T12:16:33.006Z,20.40
2023-01-12T12:19:18.445Z,21.30
2023-01-12T12:21:49.297Z,17.70
2023-01-12T12:24:18.986Z,20.30
2023-01-12T12:26:51.382Z,19.70
2023-01-12T12:29:27.072Z,22.50
2023-01-12T12:31:56.867Z,28.30
2023-01-12T12:35:21.389Z,30.40
2023-01-12T12:38:22.219Z,35.80
2023-01-12T12:41:24.183Z,27.00
2023-01-12T12:44:33.571Z,24.80
2023-01-12T12:47:21.593Z,28.40
2023-01-12T12:49:48.305Z,30.40
2023-01-12T12:52:15.053Z,25.00
2023-01-12T12:54:41.742Z,19.50
2023-01-12T12:57:15.537Z,20.90
2023-01-12T12:59:42.237Z,26.30
2023-01-12T13:02:31.641Z,33.80
2023-01-12T13:04:59.306Z,24.20
2023-01-12T13:07:25.976Z,22.70
2023-01-12T13:10:01.427Z,25.00
2023-01-12T13:12:33.069Z,28.40
2023-01-12T13:15:18.445Z,23.10
2023-01-12T13:17:45.786Z,25.50
2023-01-12T13:20:24.708Z,27.40
2023-01-12T13:22:52.111Z,26.70
2023-01-12T13:25:24.850Z,26.40
2023-01-12T13:27:56.435Z,27.30
2023-01-12T13:30:29.389Z,28.50
2023-01-12T13:33:16.867Z,22.60
2023-01-12T13:35:45.057Z,20.20
2023-01-12T13:38:32.171Z,24.50
2023-01-12T13:41:14.402Z,26.20
2023-01-12T13:43:47.698Z,28.40
2023-01-12T13:46:25.171Z,22.10
2023-01-12T13:48:53.896Z,23.00
2023-01-12T13:51:40.525Z,28.00
2023-01-12T13:54:11.109Z,23.20
2023-01-12T13:56:37.937Z,30.60
2023-01-12T13:59:07.766Z,58.60
2023-01-12T14:01:36.309Z,34.90
2023-01-12T14:04:10.201Z,41.70
2023-01-12T14:06:55.633Z,49.90
2023-01-12T14:09:25.058Z,34.30
2023-01-12T14:12:01.792Z,27.10
2023-01-12T14:15:11.421Z,27.70
2023-01-12T14:17:50.252Z,23.90
2023-01-12T14:20:21.555Z,20.80
2023-01-12T14:22:48.562Z,17.90
2023-01-12T14:25:22.960Z,19.60
2023-01-12T14:27:50.930Z,21.00
2023-01-12T14:30:17.734Z,25.90
2023-01-12T14:32:45.074Z,26.00
2023-01-12T14:35:31.334Z,23.80
2023-01-12T14:37:59.564Z,24.10
2023-01-12T14:40:30.876Z,20.30
2023-01-12T14:46:27.689Z,24.10
2023-01-12T14:49:19.951Z,19.50
2023-01-12T14:51:54.323Z,26.50
2023-01-12T14:54:25.490Z,33.60
2023-01-12T14:57:02.699Z,35.90
2023-01-12T14:59:33.987Z,26.30
2023-01-12T15:04:56.028Z,43.60
2023-01-12T15:07:22.831Z,34.60
2023-01-12T15:09:57.621Z,32.90
2023-01-12T15:12:30.420Z,22.00
2023-01-12T15:15:17.290Z,23.20
2023-01-12T15:18:02.727Z,28.30
2023-01-12T15:20:49.197Z,25.20
2023-01-12T15:23:34.424Z,24.20
2023-01-12T15:26:01.076Z,24.80
2023-01-12T15:28:31.376Z,26.60
2023-01-12T15:30:58.393Z,28.50
2023-01-12T15:33:25.159Z,25.50
2023-01-12T15:35:52.570Z,33.50
2023-01-12T15:38:20.762Z,26.50
2023-01-12T15:40:48.059Z,24.00
2023-01-12T15:43:15.946Z,26.40
2023-01-12T15:45:46.325Z,29.70
2023-01-12T15:48:14.255Z,27.60
2023-01-12T15:50:42.354Z,21.70
2023-01-12T15:53:12.906Z,17.00
2023-01-12T15:55:40.030Z,21.30
2023-01-12T15:58:06.982Z,20.20
2023-01-12T16:00:33.728Z,19.10
2023-01-12T16:03:00.368Z,20.50
2023-01-12T16:05:27.225Z,24.30
2023-01-12T16:07:53.964Z,23.50
2023-01-12T16:10:21.151Z,21.10
2023-01-12T16:12:48.062Z,20.10
2023-01-12T16:15:22.305Z,19.90
2023-01-12T16:17:49.093Z,19.90
2023-01-12T16:20:16.857Z,36.60
2023-01-12T16:22:43.722Z,30.20
2023-01-12T16:25:10.953Z,19.40
2023-01-12T16:27:38.250Z,20.00
2023-01-12T16:30:06.050Z,18.80
2023-01-12T16:32:32.861Z,21.30
2023-01-12T16:34:59.561Z,26.60
2023-01-12T16:37:29.906Z,23.10
2023-01-12T16:39:56.924Z,19.40
2023-01-12T16:42:23.595Z,19.20
2023-01-12T16:44:50.328Z,17.80
2023-01-12T16:47:18.629Z,20.50
2023-01-12T16:49:48.283Z,16.30
2023-01-12T16:52:15.670Z,14.80
2023-01-12T16:54:42.802Z,18.00
2023-01-12T16:57:10.533Z,17.60
2023-01-12T16:59:37.337Z,29.00
2023-01-12T17:02:08.013Z,20.60
2023-01-12T17:04:35.999Z,29.60
2023-01-12T17:07:03.536Z,21.50
2023-01-12T17:09:30.352Z,18.10
2023-01-12T17:11:58.371Z,18.10
2023-01-12T17:14:25.569Z,21.00
2023-01-12T17:16:54.401Z,21.60
2023-01-12T17:19:21.742Z,25.50
2023-01-12T17:21:49.896Z,19.60
2023-01-12T17:24:18.385Z,20.80
2023-01-12T17:26:45.615Z,18.10
2023-01-12T17:29:12.375Z,16.70
2023-01-12T17:31:39.841Z,21.90
2023-01-12T17:34:06.973Z,27.70
2023-01-12T17:36:33.826Z,32.20
2023-01-12T17:39:01.359Z,21.80
2023-01-12T17:41:46.971Z,22.40
2023-01-12T17:44:13.767Z,26.20
2023-01-12T17:46:40.476Z,26.50
2023-01-12T17:49:08.077Z,25.30
2023-01-12T17:51:35.154Z,25.00
2023-01-12T17:54:02.533Z,26.40
2023-01-12T17:56:31.439Z,20.30
2023-01-12T17:58:58.397Z,19.70
2023-01-12T18:01:26.172Z,22.00
2023-01-12T18:03:53.155Z,19.70
2023-01-12T18:06:26.573Z,23.00
2023-01-12T18:08:53.952Z,23.90
2023-01-12T18:11:20.806Z,22.10
2023-01-12T18:13:47.646Z,20.00
2023-01-12T18:16:14.575Z,20.70
2023-01-12T18:18:42.439Z,18.90
2023-01-12T18:21:10.534Z,20.40
2023-01-12T18:23:38.839Z,19.90
2023-01-12T18:26:06.641Z,20.00
2023-01-12T18:28:33.563Z,20.30
2023-01-12T18:31:08.575Z,22.10
2023-01-12T18:33:35.470Z,18.20
2023-01-12T18:36:07.744Z,21.00
2023-01-12T18:38:34.386Z,24.30
2023-01-12T18:41:22.998Z,17.70
2023-01-12T18:43:51.457Z,19.90
2023-01-12T18:46:18.977Z,18.40
2023-01-12T18:48:46.346Z,24.40
2023-01-12T18:51:32.809Z,19.90
2023-01-12T18:53:59.991Z,20.40
2023-01-12T18:56:26.713Z,18.40
2023-01-12T18:58:53.480Z,18.90
2023-01-12T19:01:24.563Z,22.90
2023-01-12T19:03:51.922Z,20.20
2023-01-12T19:06:20.151Z,19.60
2023-01-12T19:09:05.466Z,23.40
2023-01-12T19:11:32.158Z,24.20
2023-01-12T19:14:17.430Z,18.20
2023-01-12T19:17:02.987Z,22.10
2023-01-12T19:19:30.863Z,19.40
2023-01-12T19:22:16.727Z,19.60
2023-01-12T19:25:02.027Z,19.70
2023-01-12T19:27:47.383Z,22.10
2023-01-12T19:30:14.216Z,22.50
2023-01-12T19:32:40.918Z,22.10
2023-01-12T19:35:11.417Z,18.80
2023-01-12T19:37:40.193Z,20.40
2023-01-12T19:40:16.408Z,20.00
2023-01-12T19:43:01.859Z,18.20
2023-01-12T19:45:28.690Z,23.20
2023-01-12T19:47:55.382Z,20.10
2023-01-12T19:50:22.142Z,22.80
2023-01-12T19:52:48.853Z,24.50
2023-01-12T19:55:16.345Z,23.40
2023-01-12T23:12:18.756Z,21.00
2023-01-12T23:14:45.539Z,18.90
2023-01-12T23:17:12.859Z,18.90
2023-01-12T23:19:39.860Z,19.20
2023-01-12T23:22:06.628Z,22.80
2023-01-12T23:24:33.524Z,20.50
2023-01-12T23:27:00.359Z,21.90
2023-01-12T23:29:27.297Z,21.30
2023-01-12T23:31:54.032Z,19.50
2023-01-12T23:34:21.010Z,21.70
2023-01-12T23:36:47.692Z,22.70
2023-01-12T23:39:14.440Z,21.00
2023-01-12T23:41:41.325Z,20.10
2023-01-12T23:44:09.224Z,23.70
2023-01-12T23:46:37.922Z,25.50
2023-01-12T23:49:04.895Z,25.00
2023-01-12T23:51:31.803Z,21.30
2023-01-12T23:53:59.812Z,21.60
2023-01-12T23:56:30.881Z,22.00
2023-01-12T23:58:57.885Z,23.20
